createdAt,value
2017-12-22T00:00:15.185Z,0
2017-12-22T00:01:25.377Z,0
2017-12-22T00:02:35.180Z,0
2017-12-22T00:03:44.717Z,0
2017-12-22T00:04:54.514Z,0
2017-12-22T00:06:04.331Z,0
2017-12-22T00:07:14.169Z,0
2017-12-22T00:08:24.283Z,0
2017-12-22T00:09:34.085Z,0
2017-12-22T00:10:43.888Z,0
2017-12-22T00:11:53.953Z,0
2017-12-22T00:13:04.024Z,0
2017-12-22T00:14:14.077Z,0
2017-12-22T00:15:24.147Z,0
2017-12-22T00:16:33.955Z,0
2017-12-22T00:17:44.018Z,0
2017-12-22T00:18:53.869Z,0
2017-12-22T00:20:03.946Z,0
2017-12-22T00:21:14.001Z,0
2017-12-22T00:22:23.539Z,0
2017-12-22T00:23:33.331Z,0
2017-12-22T00:24:43.433Z,0
2017-12-22T00:25:52.973Z,0
2017-12-22T00:27:02.500Z,0
2017-12-22T00:28:12.370Z,0
2017-12-22T00:29:22.434Z,0
2017-12-22T00:30:32.485Z,0
2017-12-22T00:31:42.541Z,0
2017-12-22T00:32:52.595Z,0
2017-12-22T00:34:02.641Z,0
2017-12-22T00:35:12.708Z,0
2017-12-22T00:36:22.524Z,0
2017-12-22T00:37:32.569Z,0
2017-12-22T00:38:42.633Z,0
2017-12-22T00:39:52.161Z,0
2017-12-22T00:41:02.022Z,0
2017-12-22T00:42:11.564Z,0
2017-12-22T00:43:21.630Z,0
2017-12-22T00:44:31.453Z,0
2017-12-22T00:45:41.522Z,0
2017-12-22T00:46:51.321Z,0
2017-12-22T00:48:01.132Z,0
2017-12-22T00:49:11.175Z,0
2017-12-22T00:50:21.255Z,0
2017-12-22T00:51:31.063Z,0
2017-12-22T00:52:40.609Z,0
2017-12-22T00:53:50.403Z,0
2017-12-22T00:55:00.192Z,0
2017-12-22T00:56:10.256Z,0
2017-12-22T00:57:20.044Z,0
2017-12-22T00:58:30.104Z,0
2017-12-22T00:59:40.208Z,0
2017-12-22T01:00:50.007Z,0
2017-12-22T01:02:00.069Z,0
2017-12-22T01:03:10.118Z,0
2017-12-22T01:04:19.917Z,0
2017-12-22T01:05:29.753Z,0
2017-12-22T01:06:39.296Z,0
2017-12-22T01:07:49.345Z,0
2017-12-22T01:08:59.139Z,0
2017-12-22T01:10:08.676Z,0
2017-12-22T01:11:18.771Z,0
2017-12-22T01:12:28.829Z,0
2017-12-22T01:13:38.878Z,0
2017-12-22T01:14:48.402Z,0
2017-12-22T01:15:58.208Z,0
2017-12-22T01:17:08.260Z,0
2017-12-22T01:18:17.795Z,0
2017-12-22T01:19:27.572Z,0
2017-12-22T01:20:36.846Z,0
2017-12-22T01:21:46.889Z,0
2017-12-22T01:22:56.742Z,0
2017-12-22T01:24:06.549Z,0
2017-12-22T01:25:16.595Z,0
2017-12-22T01:26:26.654Z,0
2017-12-22T01:27:36.193Z,0
2017-12-22T01:28:46.286Z,0
2017-12-22T01:29:56.088Z,0
2017-12-22T01:31:05.867Z,0
2017-12-22T01:32:15.659Z,0
2017-12-22T01:33:25.469Z,0
2017-12-22T01:34:35.521Z,0
2017-12-22T01:35:45.575Z,0
2017-12-22T01:36:55.125Z,0
2017-12-22T01:38:04.912Z,0
2017-12-22T01:39:14.501Z,0
2017-12-22T01:40:24.339Z,0
2017-12-22T01:41:34.129Z,0
2017-12-22T01:42:44.209Z,0
2017-12-22T01:43:54.316Z,0
2017-12-22T01:45:04.104Z,0
2017-12-22T01:46:14.145Z,0
2017-12-22T01:47:24.204Z,0
2017-12-22T01:48:33.997Z,0
2017-12-22T01:49:43.275Z,0
2017-12-22T01:50:53.088Z,0
2017-12-22T01:52:03.142Z,0
2017-12-22T01:53:13.191Z,0
2017-12-22T01:54:23.247Z,0
2017-12-22T01:55:33.035Z,0
2017-12-22T01:56:43.093Z,0
2017-12-22T01:57:53.210Z,0
2017-12-22T01:59:03.261Z,0
2017-12-22T02:00:13.322Z,0
2017-12-22T02:01:23.384Z,0
2017-12-22T02:02:33.428Z,0
2017-12-22T02:03:43.315Z,0
2017-12-22T02:04:53.093Z,0
2017-12-22T02:06:03.155Z,0
2017-12-22T02:07:13.206Z,0
2017-12-22T02:08:23.061Z,0
2017-12-22T02:09:33.159Z,0
2017-12-22T02:10:43.217Z,0
2017-12-22T02:11:53.615Z,0
2017-12-22T02:13:03.805Z,0
2017-12-22T02:14:13.847Z,0
2017-12-22T02:15:23.919Z,0
2017-12-22T02:16:33.979Z,0
2017-12-22T02:17:43.774Z,0
2017-12-22T02:18:53.874Z,0
2017-12-22T02:20:03.412Z,0
2017-12-22T02:21:13.200Z,0
2017-12-22T02:22:23.257Z,0
2017-12-22T02:23:33.302Z,0
2017-12-22T02:24:43.372Z,0
2017-12-22T02:25:53.419Z,0
2017-12-22T02:27:02.948Z,0
2017-12-22T02:28:12.748Z,0
2017-12-22T02:29:22.536Z,0
2017-12-22T02:30:32.057Z,0
2017-12-22T02:31:41.845Z,0
2017-12-22T02:32:51.655Z,0
2017-12-22T02:34:01.727Z,0
2017-12-22T02:35:11.531Z,0
2017-12-22T02:36:21.583Z,0
2017-12-22T02:37:31.649Z,0
2017-12-22T02:38:41.764Z,0
2017-12-22T02:39:51.825Z,0
2017-12-22T02:41:01.349Z,0
2017-12-22T02:42:11.146Z,0
2017-12-22T02:43:20.937Z,0
2017-12-22T02:44:31.002Z,0
2017-12-22T02:45:41.084Z,0
2017-12-22T02:46:51.196Z,0
2017-12-22T02:48:00.723Z,0
2017-12-22T02:49:10.504Z,0
2017-12-22T02:50:20.956Z,0
2017-12-22T02:51:31.028Z,0
2017-12-22T02:52:40.565Z,0
2017-12-22T02:53:50.352Z,0
2017-12-22T02:55:00.132Z,0
2017-12-22T02:56:10.241Z,0
2017-12-22T02:57:19.776Z,0
2017-12-22T02:58:29.829Z,0
2017-12-22T02:59:39.920Z,0
2017-12-22T03:00:49.973Z,0
2017-12-22T03:01:59.818Z,0
2017-12-22T03:34:11.908Z,0
2017-12-22T03:35:21.948Z,0
2017-12-22T03:36:31.747Z,0
2017-12-22T03:37:41.787Z,0
2017-12-22T03:38:51.828Z,0
2017-12-22T03:40:02.911Z,0
2017-12-22T03:41:13.147Z,0
2017-12-22T03:42:23.186Z,0
2017-12-22T03:43:33.241Z,0
2017-12-22T03:44:43.034Z,0
2017-12-22T03:45:53.095Z,0
2017-12-22T03:47:02.886Z,0
2017-12-22T03:48:12.956Z,0
2017-12-22T03:49:22.767Z,0
2017-12-22T03:50:32.568Z,0
2017-12-22T03:51:42.673Z,0
2017-12-22T03:52:52.529Z,0
2017-12-22T03:54:02.587Z,0
2017-12-22T03:55:12.643Z,0
2017-12-22T03:56:22.714Z,0
2017-12-22T03:57:32.761Z,0
2017-12-22T03:58:42.816Z,0
2017-12-22T03:59:52.890Z,0
2017-12-22T04:01:02.692Z,0
2017-12-22T04:02:12.738Z,0
2017-12-22T04:03:22.791Z,0
2017-12-22T04:04:32.844Z,0
2017-12-22T04:05:42.912Z,0
2017-12-22T04:06:52.961Z,0
2017-12-22T04:08:02.755Z,0
2017-12-22T04:09:12.552Z,0
2017-12-22T04:10:22.376Z,0
2017-12-22T04:11:32.162Z,0
2017-12-22T04:12:42.249Z,0
2017-12-22T04:13:52.302Z,0
2017-12-22T04:15:02.352Z,0
2017-12-22T04:16:12.159Z,0
2017-12-22T04:17:22.233Z,0
2017-12-22T04:18:32.282Z,0
2017-12-22T04:19:42.331Z,0
2017-12-22T04:20:52.159Z,0
2017-12-22T04:22:01.948Z,0
2017-12-22T04:23:11.751Z,0
2017-12-22T04:24:21.804Z,0
2017-12-22T04:25:31.591Z,0
2017-12-22T04:26:41.386Z,0
2017-12-22T04:27:51.177Z,0
2017-12-22T04:29:01.285Z,0
2017-12-22T04:30:11.353Z,0
2017-12-22T04:31:21.150Z,0
2017-12-22T04:32:31.280Z,0
2017-12-22T04:33:41.347Z,0
2017-12-22T04:34:51.397Z,0
2017-12-22T04:36:01.459Z,0
2017-12-22T04:37:11.506Z,0
2017-12-22T04:38:21.555Z,0
2017-12-22T04:39:31.361Z,0
2017-12-22T04:40:41.416Z,0
2017-12-22T04:41:51.469Z,0
2017-12-22T04:43:01.514Z,0
2017-12-22T04:44:11.628Z,0
2017-12-22T04:45:21.680Z,0
2017-12-22T04:46:31.466Z,0
2017-12-22T04:47:41.534Z,0
2017-12-22T04:48:51.592Z,0
2017-12-22T04:50:01.633Z,0
2017-12-22T04:51:11.687Z,0
2017-12-22T04:52:21.484Z,0
2017-12-22T04:53:31.021Z,0
2017-12-22T04:54:41.083Z,0
2017-12-22T04:55:50.925Z,0
2017-12-22T04:57:00.992Z,0
2017-12-22T04:58:10.794Z,0
2017-12-22T04:59:20.586Z,0
2017-12-22T05:00:30.384Z,0
2017-12-22T05:01:40.231Z,0
2017-12-22T05:02:50.293Z,0
2017-12-22T05:03:59.849Z,0
2017-12-22T05:05:09.914Z,0
2017-12-22T05:06:19.966Z,0
2017-12-22T05:07:30.094Z,0
2017-12-22T05:08:40.139Z,0
2017-12-22T05:09:49.936Z,0
2017-12-22T05:11:00.008Z,0
2017-12-22T05:12:10.064Z,0
2017-12-22T05:13:19.905Z,0
2017-12-22T05:14:30.055Z,0
2017-12-22T05:15:40.110Z,0
2017-12-22T05:16:49.908Z,0
2017-12-22T05:17:59.968Z,0
2017-12-22T05:19:09.813Z,0
2017-12-22T05:20:19.883Z,0
2017-12-22T05:21:29.949Z,0
2017-12-22T05:22:40.003Z,0
2017-12-22T05:23:49.527Z,0
2017-12-22T05:24:59.374Z,0
2017-12-22T05:26:09.170Z,0
2017-12-22T05:27:18.964Z,0
2017-12-22T05:28:29.009Z,0
2017-12-22T05:29:39.075Z,0
2017-12-22T05:30:48.912Z,0
2017-12-22T05:31:58.713Z,0
2017-12-22T05:33:08.778Z,0
2017-12-22T05:34:18.580Z,0
2017-12-22T05:35:28.387Z,0
2017-12-22T05:36:38.434Z,0
2017-12-22T05:37:47.973Z,0
2017-12-22T05:38:57.767Z,0
2017-12-22T05:40:07.803Z,0
2017-12-22T05:41:17.849Z,0
2017-12-22T05:42:27.919Z,0
2017-12-22T05:43:37.979Z,0
2017-12-22T05:44:47.769Z,0
2017-12-22T05:45:57.578Z,0
2017-12-22T05:47:06.854Z,0
2017-12-22T05:48:16.398Z,0
2017-12-22T05:49:26.470Z,0
2017-12-22T05:50:36.248Z,0
2017-12-22T05:51:46.043Z,0
2017-12-22T05:52:56.102Z,0
2017-12-22T05:54:05.948Z,0
2017-12-22T05:55:15.749Z,0
2017-12-22T05:56:25.588Z,0
2017-12-22T05:57:35.639Z,0
2017-12-22T05:58:45.167Z,0
2017-12-22T05:59:55.266Z,0
2017-12-22T06:01:05.064Z,0
2017-12-22T06:02:14.842Z,0
2017-12-22T06:03:24.888Z,0
2017-12-22T06:04:34.679Z,0
2017-12-22T06:05:44.732Z,0
2017-12-22T06:06:54.774Z,0
2017-12-22T06:08:04.845Z,0
2017-12-22T06:09:14.912Z,0
2017-12-22T06:10:24.966Z,0
2017-12-22T06:11:35.084Z,0
2017-12-22T06:12:44.885Z,0
2017-12-22T06:13:54.674Z,0
2017-12-22T06:15:04.716Z,0
2017-12-22T06:16:14.760Z,0
2017-12-22T06:17:24.547Z,0
2017-12-22T06:18:34.606Z,0
2017-12-22T06:19:44.401Z,0
2017-12-22T06:20:54.455Z,0
2017-12-22T06:22:04.261Z,0
2017-12-22T06:23:14.043Z,0
2017-12-22T06:24:23.827Z,0
2017-12-22T06:25:33.625Z,0
2017-12-22T06:26:43.424Z,0
2017-12-22T06:27:52.688Z,0
2017-12-22T06:29:02.501Z,0
2017-12-22T06:30:12.299Z,0
2017-12-22T06:31:21.839Z,0
2017-12-22T06:32:31.911Z,0
2017-12-22T06:33:41.688Z,0
2017-12-22T06:34:51.894Z,0
2017-12-22T06:36:01.687Z,0
2017-12-22T06:37:11.494Z,0
2017-12-22T06:38:21.290Z,0
2017-12-22T06:39:31.104Z,0
2017-12-22T06:40:41.198Z,0
2017-12-22T06:41:51.249Z,0
2017-12-22T06:43:01.066Z,0
2017-12-22T06:44:10.598Z,0
2017-12-22T06:45:20.399Z,0
2017-12-22T06:46:30.489Z,0
2017-12-22T06:47:40.552Z,0
2017-12-22T06:48:50.353Z,0
2017-12-22T06:50:00.428Z,0
2017-12-22T06:51:10.219Z,0
2017-12-22T06:52:20.075Z,0
2017-12-22T06:53:30.128Z,0
2017-12-22T06:54:40.194Z,5
2017-12-22T06:55:50.049Z,5
2017-12-22T06:56:59.852Z,5
2017-12-22T06:58:09.953Z,5
2017-12-22T06:59:20.011Z,5
2017-12-22T07:00:29.801Z,5
2017-12-22T07:01:39.615Z,5
2017-12-22T07:02:49.673Z,5
2017-12-22T07:03:59.285Z,5
2017-12-22T07:05:09.084Z,5
2017-12-22T07:06:19.134Z,5
2017-12-22T07:07:29.182Z,5
2017-12-22T07:08:39.242Z,5
2017-12-22T07:09:49.319Z,5
2017-12-22T07:10:59.374Z,5
2017-12-22T07:12:09.177Z,5
2017-12-22T07:13:19.244Z,5
2017-12-22T07:14:29.286Z,5
2017-12-22T07:15:39.332Z,5
2017-12-22T07:16:49.392Z,10
2017-12-22T07:17:59.463Z,10
2017-12-22T07:19:09.511Z,10
2017-12-22T07:20:19.620Z,10
2017-12-22T07:21:29.424Z,10
2017-12-22T07:22:39.227Z,10
2017-12-22T07:23:49.301Z,10
2017-12-22T07:24:58.839Z,10
2017-12-22T07:26:08.632Z,10
2017-12-22T07:27:18.739Z,10
2017-12-22T07:28:28.275Z,10
2017-12-22T07:29:38.319Z,10
2017-12-22T07:30:48.375Z,15
2017-12-22T07:31:58.011Z,15
2017-12-22T07:33:07.855Z,15
2017-12-22T07:34:17.391Z,15
2017-12-22T07:35:27.202Z,15
2017-12-22T07:36:37.239Z,15
2017-12-22T07:37:46.766Z,15
2017-12-22T07:38:56.576Z,15
2017-12-22T07:40:06.632Z,15
2017-12-22T07:41:16.784Z,15
2017-12-22T07:42:26.821Z,15
2017-12-22T07:43:36.878Z,15
2017-12-22T07:44:46.970Z,15
2017-12-22T07:45:56.752Z,20
2017-12-22T07:47:06.553Z,20
2017-12-22T07:48:16.610Z,20
2017-12-22T07:49:26.429Z,20
2017-12-22T07:50:36.483Z,20
2017-12-22T07:51:46.568Z,20
2017-12-22T07:52:56.353Z,20
2017-12-22T07:54:06.150Z,20
2017-12-22T07:55:16.217Z,20
2017-12-22T07:56:26.331Z,20
2017-12-22T07:57:36.380Z,20
2017-12-22T07:58:46.429Z,25
2017-12-22T07:59:56.245Z,25
2017-12-22T08:01:06.306Z,25
2017-12-22T08:02:16.365Z,30
2017-12-22T08:03:26.433Z,30
2017-12-22T08:04:36.559Z,30
2017-12-22T08:05:46.615Z,30
2017-12-22T08:06:56.408Z,35
2017-12-22T08:08:06.470Z,35
2017-12-22T08:09:16.263Z,35
2017-12-22T08:10:26.310Z,35
2017-12-22T08:11:36.380Z,35
2017-12-22T08:12:46.594Z,40
2017-12-22T08:13:56.381Z,40
2017-12-22T08:15:06.183Z,40
2017-12-22T08:16:15.982Z,40
2017-12-22T08:17:25.533Z,40
2017-12-22T08:18:35.582Z,40
2017-12-22T08:19:45.771Z,40
2017-12-22T08:20:55.558Z,40
2017-12-22T08:22:05.615Z,40
2017-12-22T08:23:15.667Z,40
2017-12-22T08:24:25.224Z,40
2017-12-22T08:25:35.510Z,40
2017-12-22T08:26:45.612Z,45
2017-12-22T08:27:55.656Z,40
2017-12-22T08:29:05.427Z,40
2017-12-22T08:30:15.498Z,40
2017-12-22T08:31:25.707Z,40
2017-12-22T08:32:35.509Z,40
2017-12-22T08:33:45.568Z,40
2017-12-22T08:34:55.636Z,40
2017-12-22T08:36:05.698Z,45
2017-12-22T08:37:15.789Z,45
2017-12-22T08:38:25.847Z,50
2017-12-22T08:39:35.914Z,50
2017-12-22T08:40:45.703Z,50
2017-12-22T08:41:55.266Z,50
2017-12-22T08:43:04.792Z,50
2017-12-22T08:44:14.592Z,55
2017-12-22T08:45:25.856Z,55
2017-12-22T08:46:35.932Z,55
2017-12-22T08:47:45.996Z,55
2017-12-22T08:48:55.043Z,60
2017-12-22T08:50:04.833Z,60
2017-12-22T08:51:14.663Z,60
2017-12-22T08:52:24.503Z,60
2017-12-22T08:53:34.288Z,60
2017-12-22T08:54:44.130Z,60
2017-12-22T08:55:55.038Z,60
2017-12-22T08:57:04.841Z,55
2017-12-22T08:58:14.417Z,55
2017-12-22T08:59:25.268Z,50
2017-12-22T09:00:35.671Z,50
2017-12-22T09:01:47.351Z,50
2017-12-22T09:03:00.071Z,45
2017-12-22T09:04:12.867Z,45
2017-12-22T09:05:26.894Z,50
2017-12-22T09:06:39.727Z,50
2017-12-22T09:07:51.479Z,50
2017-12-22T09:09:02.543Z,50
2017-12-22T09:10:14.982Z,55
2017-12-22T09:11:27.112Z,55
2017-12-22T09:12:37.528Z,55
2017-12-22T09:13:50.070Z,55
2017-12-22T09:15:00.707Z,55
2017-12-22T09:16:11.344Z,55
2017-12-22T09:17:21.653Z,55
2017-12-22T09:18:32.141Z,55
2017-12-22T09:19:42.347Z,55
2017-12-22T09:20:52.399Z,55
2017-12-22T09:22:02.475Z,55
2017-12-22T09:23:12.279Z,60
2017-12-22T09:24:22.323Z,60
2017-12-22T09:25:32.117Z,65
2017-12-22T09:26:42.198Z,70
2017-12-22T09:27:52.001Z,75
2017-12-22T09:29:01.923Z,75
2017-12-22T09:30:11.898Z,75
2017-12-22T09:31:21.659Z,75
2017-12-22T09:32:33.612Z,75
2017-12-22T09:33:43.427Z,75
2017-12-22T09:34:53.503Z,75
2017-12-22T09:36:03.615Z,80
2017-12-22T09:37:13.416Z,75
2017-12-22T09:38:23.490Z,80
2017-12-22T09:39:33.309Z,80
2017-12-22T09:40:43.271Z,80
2017-12-22T09:41:53.342Z,80
2017-12-22T09:43:03.150Z,80
2017-12-22T09:44:13.215Z,80
2017-12-22T09:45:22.751Z,80
2017-12-22T09:46:32.550Z,80
2017-12-22T09:47:42.621Z,80
2017-12-22T09:48:53.321Z,80
2017-12-22T09:50:02.861Z,80
2017-12-22T09:51:12.406Z,80
2017-12-22T09:52:21.939Z,80
2017-12-22T09:53:31.999Z,75
2017-12-22T09:54:42.060Z,75
2017-12-22T09:55:52.137Z,75
2017-12-22T09:57:01.683Z,75
2017-12-22T09:58:12.499Z,75
2017-12-22T09:59:22.571Z,75
2017-12-22T10:00:32.353Z,75
2017-12-22T10:01:42.432Z,75
2017-12-22T10:02:51.722Z,80
2017-12-22T10:04:01.776Z,80
2017-12-22T10:05:11.852Z,80
2017-12-22T10:06:21.922Z,80
2017-12-22T10:07:31.726Z,80
2017-12-22T10:08:41.775Z,75
2017-12-22T10:09:51.622Z,75
2017-12-22T10:11:01.432Z,75
2017-12-22T10:12:11.499Z,75
2017-12-22T10:13:21.553Z,75
2017-12-22T10:14:31.346Z,80
2017-12-22T10:15:41.457Z,80
2017-12-22T10:16:51.527Z,80
2017-12-22T10:18:01.112Z,80
2017-12-22T10:19:10.932Z,85
2017-12-22T10:20:21.069Z,85
2017-12-22T10:21:30.882Z,80
2017-12-22T10:22:40.677Z,80
2017-12-22T10:23:50.489Z,85
2017-12-22T10:25:00.022Z,85
2017-12-22T10:26:09.821Z,90
2017-12-22T10:27:19.614Z,85
2017-12-22T10:28:29.401Z,85
2017-12-22T10:29:39.248Z,90
2017-12-22T10:30:49.310Z,90
2017-12-22T10:31:59.366Z,90
2017-12-22T10:33:09.204Z,90
2017-12-22T10:34:18.758Z,95
2017-12-22T10:35:28.831Z,95
2017-12-22T10:36:38.939Z,95
2017-12-22T10:37:49.001Z,95
2017-12-22T10:38:59.122Z,95
2017-12-22T10:40:09.176Z,100
2017-12-22T10:41:19.322Z,100
2017-12-22T10:42:29.384Z,100
2017-12-22T10:43:39.446Z,100
2017-12-22T10:44:49.355Z,100
2017-12-22T10:45:59.448Z,100
2017-12-22T10:47:09.679Z,100
2017-12-22T10:48:19.469Z,100
2017-12-22T10:49:29.538Z,100
2017-12-22T10:50:39.602Z,100
2017-12-22T10:51:49.662Z,100
2017-12-22T10:52:59.723Z,100
2017-12-22T10:54:09.783Z,100
2017-12-22T10:55:19.592Z,100
2017-12-22T10:56:29.699Z,100
2017-12-22T10:57:39.235Z,100
2017-12-22T10:58:49.309Z,100
2017-12-22T10:59:59.399Z,100
2017-12-22T11:01:09.190Z,100
2017-12-22T11:02:19.326Z,100
2017-12-22T11:03:29.139Z,100
2017-12-22T11:04:38.662Z,100
2017-12-22T11:05:48.732Z,100
2017-12-22T11:06:58.330Z,100
2017-12-22T11:08:08.430Z,100
2017-12-22T11:09:18.496Z,105
2017-12-22T11:10:28.785Z,100
2017-12-22T11:11:38.831Z,100
2017-12-22T11:12:48.633Z,100
2017-12-22T11:13:58.490Z,100
2017-12-22T11:15:08.286Z,95
2017-12-22T11:16:18.360Z,90
2017-12-22T11:17:28.175Z,90
2017-12-22T11:18:38.224Z,85
2017-12-22T11:19:48.326Z,85
2017-12-22T11:20:58.121Z,85
2017-12-22T11:22:08.767Z,85
2017-12-22T11:23:18.321Z,85
2017-12-22T11:24:28.143Z,80
2017-12-22T11:25:37.734Z,85
2017-12-22T11:26:47.784Z,85
2017-12-22T11:27:57.855Z,90
2017-12-22T11:29:07.684Z,90
2017-12-22T11:30:17.740Z,90
2017-12-22T11:31:27.594Z,85
2017-12-22T11:32:37.394Z,85
2017-12-22T11:33:47.732Z,90
2017-12-22T11:34:57.822Z,90
2017-12-22T11:36:07.344Z,90
2017-12-22T11:37:17.132Z,85
2017-12-22T11:38:26.931Z,80
2017-12-22T11:39:36.992Z,80
2017-12-22T11:40:46.808Z,80
2017-12-22T11:41:56.890Z,80
2017-12-22T11:43:07.022Z,80
2017-12-22T11:44:17.082Z,80
2017-12-22T11:45:27.147Z,80
2017-12-22T11:46:36.970Z,75
2017-12-22T11:47:46.770Z,75
2017-12-22T11:48:56.884Z,75
2017-12-22T11:50:06.944Z,70
2017-12-22T11:51:16.987Z,70
2017-12-22T11:52:26.784Z,70
2017-12-22T11:53:36.870Z,70
2017-12-22T11:54:46.946Z,70
2017-12-22T11:55:56.758Z,70
2017-12-22T11:57:06.573Z,70
2017-12-22T11:58:16.652Z,75
2017-12-22T11:59:26.466Z,75
2017-12-22T12:00:36.638Z,75
2017-12-22T12:01:46.447Z,70
2017-12-22T12:02:56.509Z,65
2017-12-22T12:04:06.729Z,65
2017-12-22T12:05:16.783Z,65
2017-12-22T12:06:26.575Z,65
2017-12-22T12:07:36.368Z,65
2017-12-22T12:08:46.169Z,65
2017-12-22T12:09:56.245Z,65
2017-12-22T12:11:06.338Z,65
2017-12-22T12:12:16.199Z,65
2017-12-22T12:13:26.003Z,65
2017-12-22T12:14:35.811Z,65
2017-12-22T12:15:45.669Z,65
2017-12-22T12:16:55.790Z,65
2017-12-22T12:18:05.599Z,65
2017-12-22T12:19:15.162Z,60
2017-12-22T12:20:24.969Z,65
2017-12-22T12:21:34.780Z,65
2017-12-22T12:22:44.591Z,65
2017-12-22T12:23:54.459Z,60
2017-12-22T12:25:04.521Z,65
2017-12-22T12:26:14.590Z,65
2017-12-22T12:27:24.413Z,65
2017-12-22T12:28:34.496Z,70
2017-12-22T12:29:44.547Z,70
2017-12-22T12:30:54.337Z,70
2017-12-22T12:32:04.398Z,70
2017-12-22T12:33:14.188Z,70
2017-12-22T12:34:23.970Z,70
2017-12-22T12:35:34.044Z,70
2017-12-22T12:36:44.104Z,70
2017-12-22T12:37:54.983Z,70
2017-12-22T12:39:05.058Z,70
2017-12-22T12:40:15.133Z,70
2017-12-22T12:41:24.951Z,75
2017-12-22T12:42:35.065Z,75
2017-12-22T12:43:44.344Z,75
2017-12-22T12:44:56.414Z,80
2017-12-22T12:46:07.610Z,80
2017-12-22T12:47:18.107Z,80
2017-12-22T12:48:29.090Z,85
2017-12-22T12:49:43.604Z,95
2017-12-22T12:50:59.503Z,100
2017-12-22T12:52:14.331Z,105
2017-12-22T12:53:28.167Z,110
2017-12-22T12:54:39.327Z,110
2017-12-22T12:55:49.175Z,110
2017-12-22T12:56:59.273Z,115
2017-12-22T12:58:08.876Z,115
2017-12-22T12:59:18.694Z,120
2017-12-22T13:00:28.760Z,120
2017-12-22T13:01:38.294Z,115
2017-12-22T13:02:48.370Z,115
2017-12-22T13:03:58.476Z,115
2017-12-22T13:05:08.268Z,110
2017-12-22T13:06:18.074Z,105
2017-12-22T13:07:28.138Z,105
2017-12-22T13:08:38.194Z,105
2017-12-22T13:09:48.309Z,105
2017-12-22T13:10:58.378Z,100
2017-12-22T13:12:08.448Z,100
2017-12-22T13:13:18.520Z,105
2017-12-22T13:14:28.593Z,110
2017-12-22T13:15:38.672Z,110
2017-12-22T13:16:48.735Z,120
2017-12-22T13:17:58.538Z,115
2017-12-22T13:19:08.342Z,110
2017-12-22T13:20:18.415Z,110
2017-12-22T13:21:28.471Z,105
2017-12-22T13:22:38.275Z,100
2017-12-22T13:23:48.077Z,95
2017-12-22T13:24:57.877Z,95
2017-12-22T13:26:07.705Z,90
2017-12-22T13:27:17.820Z,85
2017-12-22T13:28:27.901Z,75
2017-12-22T13:29:37.972Z,75
2017-12-22T13:30:47.254Z,70
2017-12-22T13:31:57.369Z,70
2017-12-22T13:33:06.950Z,65
2017-12-22T13:34:17.015Z,60
2017-12-22T13:35:27.733Z,55
2017-12-22T13:36:37.555Z,50
2017-12-22T13:37:47.633Z,50
2017-12-22T13:38:57.533Z,50
2017-12-22T13:40:07.384Z,50
2017-12-22T13:41:17.181Z,45
2017-12-22T13:42:26.980Z,45
2017-12-22T13:43:37.045Z,50
2017-12-22T13:44:46.649Z,65
2017-12-22T13:45:56.213Z,55
2017-12-22T13:47:06.273Z,55
2017-12-22T13:48:16.067Z,45
2017-12-22T13:49:26.128Z,45
2017-12-22T13:50:36.236Z,45
2017-12-22T13:51:46.300Z,45
2017-12-22T13:52:56.343Z,45
2017-12-22T13:54:05.631Z,45
2017-12-22T13:55:15.690Z,45
2017-12-22T13:56:25.766Z,45
2017-12-22T13:57:35.550Z,45
2017-12-22T13:58:44.831Z,45
2017-12-22T13:59:55.420Z,45
2017-12-22T14:01:05.222Z,45
2017-12-22T14:02:15.088Z,45
2017-12-22T14:03:25.151Z,45
2017-12-22T14:04:35.207Z,45
2017-12-22T14:05:45.011Z,45
2017-12-22T14:06:54.812Z,40
2017-12-22T14:08:04.921Z,40
2017-12-22T14:09:15.678Z,40
2017-12-22T14:10:25.488Z,40
2017-12-22T14:11:35.567Z,40
2017-12-22T14:12:45.371Z,40
2017-12-22T14:13:55.192Z,40
2017-12-22T14:15:05.248Z,35
2017-12-22T14:16:15.318Z,35
2017-12-22T14:17:25.383Z,35
2017-12-22T14:18:35.458Z,30
2017-12-22T14:19:45.244Z,30
2017-12-22T14:20:54.817Z,30
2017-12-22T14:22:04.619Z,30
2017-12-22T14:23:14.675Z,25
2017-12-22T14:24:24.482Z,25
2017-12-22T14:25:34.086Z,25
2017-12-22T14:26:43.621Z,20
2017-12-22T14:27:53.741Z,20
2017-12-22T14:29:03.529Z,20
2017-12-22T14:30:13.088Z,20
2017-12-22T14:31:23.218Z,20
2017-12-22T14:32:33.303Z,20
2017-12-22T14:33:42.836Z,15
2017-12-22T14:34:52.647Z,15
2017-12-22T14:36:03.781Z,15
2017-12-22T14:37:13.842Z,15
2017-12-22T14:38:23.884Z,10
2017-12-22T14:39:33.684Z,10
2017-12-22T14:40:43.511Z,10
2017-12-22T14:41:53.581Z,10
2017-12-22T14:43:03.671Z,5
2017-12-22T14:44:13.732Z,5
2017-12-22T14:45:23.325Z,10
2017-12-22T14:46:33.147Z,5
2017-12-22T14:47:43.202Z,5
2017-12-22T14:48:53.053Z,5
2017-12-22T14:50:02.857Z,5
2017-12-22T14:51:12.662Z,5
2017-12-22T14:52:22.205Z,5
2017-12-22T14:53:32.276Z,5
2017-12-22T14:54:42.326Z,0
2017-12-22T14:55:52.374Z,0
2017-12-22T14:57:02.492Z,0
2017-12-22T14:58:12.314Z,0
2017-12-22T14:59:22.379Z,0
2017-12-22T15:00:32.494Z,0
2017-12-22T15:01:42.583Z,0
2017-12-22T15:02:52.654Z,0
2017-12-22T15:04:02.719Z,0
2017-12-22T15:05:12.799Z,0
2017-12-22T15:06:22.862Z,0
2017-12-22T15:07:32.963Z,0
2017-12-22T15:08:42.753Z,0
2017-12-22T15:09:52.820Z,0
2017-12-22T15:11:02.910Z,0
2017-12-22T15:12:12.445Z,0
2017-12-22T15:13:21.708Z,0
2017-12-22T15:14:31.780Z,0
2017-12-22T15:15:41.570Z,0
2017-12-22T15:16:51.720Z,0
2017-12-22T15:18:01.522Z,0
2017-12-22T15:19:12.455Z,0
2017-12-22T15:20:22.296Z,0
2017-12-22T15:21:32.062Z,0
2017-12-22T15:22:41.859Z,0
2017-12-22T15:23:51.737Z,0
2017-12-22T15:25:01.556Z,0
2017-12-22T15:26:11.628Z,0
2017-12-22T15:27:20.898Z,0
2017-12-22T15:28:30.419Z,0
2017-12-22T15:29:40.015Z,0
2017-12-22T15:30:50.066Z,0
2017-12-22T15:31:59.869Z,0
2017-12-22T15:33:09.945Z,0
2017-12-22T15:34:20.022Z,0
2017-12-22T15:35:30.139Z,0
2017-12-22T15:36:39.945Z,0
2017-12-22T15:37:50.264Z,0
2017-12-22T15:39:00.360Z,0
2017-12-22T15:40:10.435Z,0
2017-12-22T15:41:20.494Z,0
2017-12-22T15:42:30.028Z,0
2017-12-22T15:43:40.099Z,0
2017-12-22T15:44:49.901Z,0
2017-12-22T15:45:59.691Z,0
2017-12-22T15:47:09.812Z,0
2017-12-22T15:48:19.887Z,0
2017-12-22T15:49:29.679Z,0
2017-12-22T15:50:39.729Z,0
2017-12-22T15:51:49.569Z,0
2017-12-22T15:52:59.684Z,0
2017-12-22T15:54:09.749Z,0
2017-12-22T15:55:19.320Z,0
2017-12-22T15:56:29.397Z,0
2017-12-22T15:57:39.221Z,0
2017-12-22T15:58:49.278Z,0
2017-12-22T15:59:59.341Z,0
2017-12-22T16:01:08.878Z,0
2017-12-22T16:02:18.678Z,0
2017-12-22T16:03:28.814Z,0
2017-12-22T16:04:38.868Z,0
2017-12-22T16:05:48.689Z,0
2017-12-22T16:06:58.762Z,0
2017-12-22T16:08:08.596Z,0
2017-12-22T16:09:18.397Z,0
2017-12-22T16:10:28.541Z,0
2017-12-22T16:11:38.614Z,0
2017-12-22T16:12:48.423Z,0
2017-12-22T16:13:58.219Z,0
2017-12-22T16:15:08.294Z,0
2017-12-22T16:16:19.520Z,0
2017-12-22T16:17:29.591Z,0
2017-12-22T16:18:39.658Z,0
2017-12-22T16:19:49.738Z,0
2017-12-22T16:20:59.556Z,0
2017-12-22T16:22:09.076Z,0
2017-12-22T16:23:18.892Z,0
2017-12-22T16:24:28.686Z,0
2017-12-22T16:25:38.850Z,0
2017-12-22T16:26:48.969Z,0
2017-12-22T16:27:58.817Z,0
2017-12-22T16:29:08.866Z,0
2017-12-22T16:30:18.554Z,0
2017-12-22T16:31:28.635Z,0
2017-12-22T16:32:38.704Z,0
2017-12-22T16:33:48.828Z,0
2017-12-22T16:34:58.360Z,0
2017-12-22T16:36:07.929Z,0
2017-12-22T16:37:18.038Z,0
2017-12-22T16:38:28.095Z,0
2017-12-22T16:39:38.167Z,0
2017-12-22T16:40:47.969Z,0
2017-12-22T16:41:58.030Z,0
2017-12-22T16:43:08.076Z,0
2017-12-22T16:44:18.173Z,0
2017-12-22T16:45:28.246Z,0
2017-12-22T16:46:38.319Z,0
2017-12-22T16:47:47.862Z,0
2017-12-22T16:48:57.659Z,0
2017-12-22T16:50:07.258Z,0
2017-12-22T16:51:17.068Z,0
2017-12-22T16:52:26.876Z,0
2017-12-22T16:53:36.942Z,0
2017-12-22T16:54:46.799Z,0
2017-12-22T16:55:56.612Z,0
2017-12-22T16:57:06.424Z,0
2017-12-22T16:58:16.474Z,0
2017-12-22T16:59:26.274Z,0
2017-12-22T17:00:35.861Z,0
2017-12-22T17:01:45.935Z,0
2017-12-22T17:02:55.217Z,0
2017-12-22T17:04:05.278Z,0
2017-12-22T17:05:15.093Z,0
2017-12-22T17:06:25.179Z,0
2017-12-22T17:07:35.262Z,0
2017-12-22T17:08:45.337Z,0
2017-12-22T17:09:55.400Z,0
2017-12-22T17:11:05.799Z,0
2017-12-22T17:12:15.948Z,0
2017-12-22T17:13:25.767Z,0
2017-12-22T17:14:35.583Z,0
2017-12-22T17:15:44.857Z,0
2017-12-22T17:16:54.920Z,0
2017-12-22T17:18:04.279Z,0
2017-12-22T17:19:14.710Z,0
2017-12-22T17:20:24.532Z,0
2017-12-22T17:21:35.573Z,0
2017-12-22T17:22:45.637Z,0
2017-12-22T17:23:55.774Z,0
2017-12-22T17:25:05.303Z,0
2017-12-22T17:26:15.346Z,0